Time;durP1;ratioP1;P1;durP2;ratioP2;P2;SDS_P1;SDS_P2;PMS_P1;PMS_P2;Temp;Humidity;BMP_temperature;BMP_pressure;BME280_temperature;BME280_humidity;BME280_pressure;Samples;Min_cycle;Max_cycle;Signal;HPM_P1;HPM_P2
2022/06/18 00:01:38;;;;;;;16.48;12.52;;;;;;;18.02;70.39;95450.88;6196736;23;20015;-83
2022/06/18 00:04:12;;;;;;;21.50;12.50;;;;;;;18.49;70.69;95541.28;6220591;23;20486;-83
2022/06/18 00:06:49;;;;;;;17.75;11.95;;;;;;;17.95;70.82;95470.13;6194690;23;20012;-83
2022/06/18 00:09:15;;;;;;;13.98;12.07;;;;;;;18.39;70.51;95525.44;6198297;23;20032;-83
2022/06/18 00:14:24;;;;;;;14.55;11.73;;;;;;;17.90;70.94;95459.53;6197918;23;20140;-83
2022/06/18 00:16:50;;;;;;;22.02;12.05;;;;;;;18.16;70.84;95497.16;6195176;23;20008;-83
2022/06/18 00:19:15;;;;;;;14.00;12.38;;;;;;;17.81;71.14;95458.72;6197681;23;20697;-83
2022/06/18 00:21:41;;;;;;;18.33;12.52;;;;;;;17.97;71.54;95513.53;6197832;23;20115;-83
2022/06/18 00:24:17;;;;;;;15.02;11.18;;;;;;;17.76;71.27;95468.81;6195563;23;20012;-83
2022/06/18 00:26:43;;;;;;;13.73;12.32;;;;;;;18.37;71.18;95530.38;6197263;23;20015;-83
2022/06/18 00:29:15;;;;;;;13.18;11.88;;;;;;;18.33;70.93;95532.09;6195962;23;20123;-83
2022/06/18 00:31:40;;;;;;;;;;;;;;;18.26;71.12;95533.66;6198086;23;20008;-83
2022/06/18 00:34:06;;;;;;;14.35;12.00;;;;;;;17.70;71.44;95444.78;6195462;23;20260;-83
2022/06/18 00:36:31;;;;;;;17.27;11.10;;;;;;;17.86;71.39;95449.72;6195605;23;20015;-83
2022/06/18 00:38:57;;;;;;;17.40;11.95;;;;;;;17.76;71.09;95420.53;6195985;23;20016;-83
2022/06/18 00:41:25;;;;;;;15.77;11.40;;;;;;;18.03;71.26;95500.75;6196483;23;20502;-83
2022/06/18 00:43:56;;;;;;;13.63;11.18;;;;;;;18.30;71.22;95515.81;6198076;23;20008;-83
2022/06/18 00:46:53;;;;;;;15.50;12.02;;;;;;;18.23;71.36;95521.66;6194672;23;20526;-83
2022/06/18 00:49:21;;;;;;;15.07;11.65;;;;;;;18.03;71.86;95530.28;6162889;23;20012;-83
2022/06/18 00:51:57;;;;;;;17.08;11.85;;;;;;;17.68;72.13;95479.22;6195137;23;20012;-83
2022/06/18 00:54:39;;;;;;;13.65;12.23;;;;;;;17.84;72.07;95500.25;6194768;23;20017;-83
2022/06/18 00:57:23;;;;;;;21.23;12.60;;;;;;;17.89;72.47;95529.59;6194814;23;20102;-83
2022/06/18 01:00:12;;;;;;;20.23;12.35;;;;;;;17.86;72.26;95525.63;6197410;23;20051;-83
2022/06/18 01:02:43;;;;;;;13.68;11.63;;;;;;;17.61;72.01;95499.50;6195024;23;20448;-83
2022/06/18 01:05:19;;;;;;;16.25;11.73;;;;;;;16.69;72.17;95336.88;6194841;23;20100;-83
2022/06/18 01:07:49;;;;;;;17.88;11.65;;;;;;;17.19;71.92;95410.53;6198107;23;20013;-82
2022/06/18 01:10:30;;;;;;;14.88;12.18;;;;;;;18.06;71.01;95519.72;6195942;23;20023;-83
2022/06/18 01:12:58;;;;;;;20.10;12.13;;;;;;;17.92;71.71;95518.25;6195847;23;20012;-83
2022/06/18 01:15:24;;;;;;;22.50;11.60;;;;;;;17.94;71.61;95513.34;6195151;23;20024;-83
2022/06/18 01:17:53;;;;;;;16.35;11.82;;;;;;;17.97;71.32;95523.47;6197100;23;20016;-83
2022/06/18 01:20:19;;;;;;;15.95;12.38;;;;;;;17.73;71.91;95518.50;6195473;23;20454;-83
2022/06/18 01:22:44;;;;;;;16.90;12.18;;;;;;;17.69;72.30;95528.28;6197025;23;20592;-83
2022/06/18 01:25:10;;;;;;;13.27;11.45;;;;;;;16.74;72.09;95363.53;6195184;23;20008;-83
2022/06/18 01:27:37;;;;;;;16.60;11.05;;;;;;;17.75;72.03;95510.94;6194266;23;20353;-83
2022/06/18 01:30:06;;;;;;;17.55;10.98;;;;;;;17.56;71.59;95478.97;6196431;23;20013;-83
2022/06/18 01:32:31;;;;;;;18.00;11.30;;;;;;;17.46;71.42;95441.72;6195178;23;20012;-83
2022/06/18 01:34:57;;;;;;;20.95;11.15;;;;;;;17.96;70.83;95497.75;6197088;23;20012;-84
2022/06/18 01:37:22;;;;;;;15.55;11.25;;;;;;;17.22;70.61;95401.88;6194360;23;20142;-83
2022/06/18 01:39:48;;;;;;;14.90;11.73;;;;;;;17.45;70.45;95423.25;6195577;23;20901;-83
2022/06/18 01:42:25;;;;;;;20.17;11.77;;;;;;;17.46;70.53;95433.69;6195565;23;20613;-83
2022/06/18 01:44:51;;;;;;;16.77;11.98;;;;;;;18.08;70.11;95520.19;6220450;23;20410;-83
2022/06/18 01:47:29;;;;;;;14.48;10.57;;;;;;;17.18;70.04;95384.84;6195181;23;20017;-83
2022/06/18 01:50:20;;;;;;;17.90;11.18;;;;;;;17.68;70.28;95475.72;6195536;23;20012;-83
2022/06/18 01:52:47;;;;;;;;;;;;;;;17.92;70.33;95524.44;6186540;23;20066;-83
2022/06/18 01:55:21;;;;;;;12.60;11.00;;;;;;;16.99;70.82;95400.38;6194937;23;19990;-83
2022/06/18 01:57:51;;;;;;;11.90;10.60;;;;;;;16.75;70.74;95363.22;6195255;23;20850;-82
2022/06/18 02:00:24;;;;;;;16.63;10.98;;;;;;;17.92;70.41;95526.31;6195158;23;20012;-83
2022/06/18 02:02:51;;;;;;;13.90;10.30;;;;;;;17.93;70.24;95530.56;6195734;23;20009;-83
2022/06/18 02:05:19;;;;;;;16.67;10.18;;;;;;;17.01;70.05;95405.44;6195115;23;20009;-83
2022/06/18 02:07:46;;;;;;;13.50;10.05;;;;;;;17.44;69.91;95459.19;6196413;23;20447;-83
2022/06/18 02:10:41;;;;;;;27.17;10.68;;;;;;;17.50;70.46;95474.84;6195341;23;20015;-83
2022/06/18 02:13:09;;;;;;;16.35;10.05;;;;;;;17.68;70.60;95521.34;6199185;23;20004;-83
2022/06/18 02:15:40;;;;;;;13.57;9.98;;;;;;;17.08;70.66;95427.22;6196850;23;20020;-83
2022/06/18 02:18:08;;;;;;;14.20;10.25;;;;;;;17.26;71.16;95472.53;6196768;23;20371;-83
2022/06/18 02:20:55;;;;;;;13.55;10.70;;;;;;;17.47;71.24;95507.63;6195986;23;20690;-83
2022/06/18 02:23:23;;;;;;;14.88;10.07;;;;;;;16.83;71.29;95412.56;6198823;23;20095;-82
2022/06/18 02:25:49;;;;;;;14.10;9.70;;;;;;;16.77;71.32;95400.41;6195540;23;20008;-83
2022/06/18 02:28:30;;;;;;;13.50;10.40;;;;;;;17.44;71.42;95518.19;6195808;23;20035;-83
2022/06/18 02:30:59;;;;;;;20.13;10.10;;;;;;;17.11;71.14;95445.34;6195754;23;20015;-83
2022/06/18 02:33:43;;;;;;;14.40;10.65;;;;;;;17.54;70.87;95521.41;6195523;23;20210;-83
2022/06/18 02:36:40;;;;;;;15.45;10.73;;;;;;;16.71;71.36;95415.00;6195105;23;20020;-83
2022/06/18 02:39:09;;;;;;;18.48;12.05;;;;;;;17.50;70.99;95509.69;6198574;23;20069;-83
2022/06/18 02:41:38;;;;;;;19.27;10.68;;;;;;;16.77;71.40;95419.16;6197342;23;20017;-84
2022/06/18 02:44:04;;;;;;;15.23;10.77;;;;;;;17.01;71.50;95477.75;6199225;23;20142;-83
2022/06/18 02:46:29;;;;;;;14.02;10.38;;;;;;;16.14;71.81;95356.66;6196751;23;20452;-83
2022/06/18 02:48:57;;;;;;;17.55;10.80;;;;;;;16.90;71.80;95453.09;6197761;23;20020;-83
2022/06/18 02:51:22;;;;;;;14.30;11.13;;;;;;;17.30;71.47;95489.59;6197081;23;20009;-84
2022/06/18 02:53:48;;;;;;;16.60;10.55;;;;;;;16.98;71.62;95452.38;6199240;23;20451;-83
2022/06/18 02:56:14;;;;;;;14.50;10.38;;;;;;;17.28;71.60;95499.81;6195697;23;20477;-84
2022/06/18 02:58:43;;;;;;;18.85;9.95;;;;;;;17.04;71.56;95485.16;6197700;23;20023;-83
2022/06/18 03:01:13;;;;;;;15.07;11.43;;;;;;;16.51;71.40;95392.97;6197551;23;20013;-83
2022/06/18 03:03:43;;;;;;;15.00;10.57;;;;;;;17.17;71.11;95478.94;6198175;23;20018;-82
2022/06/18 03:06:09;;;;;;;12.85;10.43;;;;;;;16.88;70.81;95417.78;6199546;23;20347;-83
2022/06/18 03:08:35;;;;;;;17.33;10.60;;;;;;;17.50;70.67;95504.34;6222262;23;20096;-83
2022/06/18 10:39:54;;;;;;;7.32;3.70;;;;;;;27.73;34.78;95362.13;6269248;22;20030;-82
2022/06/18 10:42:20;;;;;;;11.00;5.07;;;;;;;28.01;35.88;95507.56;6272834;22;20206;-83
2022/06/18 10:45:03;;;;;;;7.97;4.18;;;;;;;27.94;36.32;95503.97;6274833;22;20031;-84
2022/06/18 10:47:45;;;;;;;6.30;4.38;;;;;;;27.42;39.25;95485.94;6272621;22;20012;-83
2022/06/18 10:50:16;;;;;;;8.38;4.50;;;;;;;27.00;37.60;95465.28;6269542;22;20069;-83
2022/06/18 10:52:43;;;;;;;9.85;5.45;;;;;;;26.77;40.00;95506.19;6273244;22;20323;-83
2022/06/18 10:55:16;;;;;;;9.25;5.20;;;;;;;26.79;40.90;95509.31;6272411;22;20113;-83
2022/06/18 10:57:42;;;;;;;8.20;4.95;;;;;;;26.47;40.45;95508.09;6274921;22;20056;-82
2022/06/18 11:00:24;;;;;;;8.48;4.68;;;;;;;25.36;42.12;95451.13;6273206;22;20008;-83
2022/06/18 11:02:52;;;;;;;14.43;4.95;;;;;;;24.94;48.83;95508.13;6274848;22;20024;-83
2022/06/18 11:05:35;;;;;;;38.35;10.27;;;;;;;23.91;56.73;95523.94;6274167;22;20004;-83
2022/06/18 11:08:05;;;;;;;11.73;6.63;;;;;;;22.67;58.59;95450.22;6274479;22;20007;-83
2022/06/18 11:10:56;;;;;;;14.33;6.07;;;;;;;22.90;56.57;95534.34;6275162;22;20068;-83
2022/06/18 11:13:35;;;;;;;14.60;6.93;;;;;;;22.95;59.57;95534.91;6274055;22;20664;-83
2022/06/18 11:16:18;;;;;;;7.95;5.22;;;;;;;22.47;56.67;95500.63;6274735;22;20023;-84
2022/06/18 11:18:49;;;;;;;9.68;5.72;;;;;;;21.92;55.92;95409.41;6274795;22;20003;-84
2022/06/18 11:21:19;;;;;;;;;;;;;;;22.37;55.08;95533.53;6276813;22;20011;-83
2022/06/18 11:23:51;;;;;;;7.75;4.95;;;;;;;21.92;56.76;95469.59;6276428;22;19982;-84
2022/06/18 11:26:22;;;;;;;9.45;4.38;;;;;;;22.30;53.78;95520.59;6275344;22;20003;-83
2022/06/18 11:28:48;;;;;;;;;;;;;;;22.55;54.67;95531.38;6275724;22;20061;-83
2022/06/18 11:31:30;;;;;;;5.20;4.65;;;;;;;22.36;55.86;95472.50;6276379;22;19939;-83
2022/06/18 11:34:07;;;;;;;11.68;5.40;;;;;;;23.02;62.84;95497.25;6274779;22;20115;-84
2022/06/18 11:36:44;;;;;;;7.05;4.68;;;;;;;23.82;60.43;95534.16;6275301;22;20015;-83
2022/06/18 11:39:25;;;;;;;8.20;4.22;;;;;;;23.91;55.65;95477.09;6275293;22;20044;-83
2022/06/18 11:41:53;;;;;;;10.00;4.05;;;;;;;24.60;52.81;95536.81;6275377;22;20361;-83
2022/06/18 11:44:20;;;;;;;6.28;4.03;;;;;;;24.85;50.79;95536.56;6276195;22;20008;-83
2022/06/18 11:46:52;;;;;;;7.57;3.72;;;;;;;24.96;52.20;95489.53;6274634;22;20018;-83
2022/06/18 11:49:28;;;;;;;7.70;4.80;;;;;;;23.44;48.69;95347.94;6276030;22;20018;-82
2022/06/18 11:52:02;;;;;;;10.05;4.93;;;;;;;24.68;53.10;95532.31;6275918;22;20075;-83
2022/06/18 11:55:04;;;;;;;15.15;4.70;;;;;;;24.70;51.64;95515.72;6276786;22;20004;-83
2022/06/18 11:57:44;;;;;;;10.00;4.80;;;;;;;24.63;51.50;95520.97;6275183;22;20432;-83
2022/06/18 12:00:21;;;;;;;7.85;4.65;;;;;;;25.06;50.15;95536.25;6274816;22;20378;-83
2022/06/18 12:03:24;;;;;;;10.07;4.38;;;;;;;25.20;50.81;95534.59;6273833;22;20019;-83
2022/06/18 12:05:59;;;;;;;10.02;4.63;;;;;;;23.87;50.24;95544.75;6275488;22;20012;-82
2022/06/18 12:08:25;;;;;;;9.25;4.40;;;;;;;23.75;50.18;95510.38;6275935;22;20449;-83
2022/06/18 12:11:33;;;;;;;6.45;4.15;;;;;;;24.65;47.47;95535.72;6274098;22;20011;-83
2022/06/18 12:14:40;;;;;;;7.07;3.92;;;;;;;23.98;48.61;95539.56;6273430;22;20370;-83
2022/06/18 12:17:20;;;;;;;10.43;4.97;;;;;;;23.91;47.31;95501.47;6153097;22;20042;-82
2022/06/18 12:20:24;;;;;;;7.65;4.10;;;;;;;24.20;46.70;95528.13;6274234;22;20054;-83
2022/06/18 12:23:03;;;;;;;8.40;4.07;;;;;;;23.43;47.98;95452.69;6187151;23;20016;-82
2022/06/18 12:25:40;;;;;;;6.47;4.25;;;;;;;23.64;47.77;95484.19;6187228;23;20012;-83
2022/06/18 12:28:28;;;;;;;11.13;4.45;;;;;;;24.05;48.85;95537.03;6239941;22;20075;-83
2022/06/18 12:31:14;;;;;;;6.63;4.18;;;;;;;23.81;47.62;95536.06;6275488;22;20011;-83
2022/06/18 12:34:00;;;;;;;5.22;4.20;;;;;;;24.03;47.14;95531.97;6274139;22;20448;-83
2022/06/18 12:36:43;;;;;;;6.13;3.80;;;;;;;24.20;45.69;95525.41;6274269;22;20019;-83
2022/06/18 12:39:47;;;;;;;10.00;4.47;;;;;;;22.95;47.64;95367.22;6275691;22;20023;-83
2022/06/18 12:42:23;;;;;;;8.88;3.70;;;;;;;24.61;44.99;95524.81;6267810;22;20404;-83
2022/06/18 12:45:02;;;;;;;5.50;3.22;;;;;;;24.74;40.54;95475.88;6274514;22;20004;-82
2022/06/18 12:47:36;;;;;;;6.72;3.03;;;;;;;25.40;39.27;95519.09;6274638;22;20076;-83
2022/06/18 12:50:05;;;;;;;4.05;2.70;;;;;;;25.13;39.04;95507.31;6273621;22;20014;-83
2022/06/18 12:53:03;;;;;;;4.80;3.15;;;;;;;24.82;38.62;95475.66;6274217;22;20011;-83
2022/06/18 12:55:33;;;;;;;7.93;2.50;;;;;;;25.60;38.89;95520.66;6191329;22;20020;-83
2022/06/18 12:58:14;;;;;;;8.57;2.50;;;;;;;25.92;36.68;95523.91;6274097;22;20485;-83
2022/06/18 13:00:49;;;;;;;3.92;2.75;;;;;;;26.26;36.72;95519.44;6273144;22;20015;-82
2022/06/18 13:03:46;;;;;;;3.78;2.80;;;;;;;26.64;36.87;95517.63;6274756;22;20077;-82
2022/06/18 13:06:24;;;;;;;4.05;2.80;;;;;;;26.72;36.27;95457.53;6273887;22;20015;-83
2022/06/18 13:08:59;;;;;;;6.03;3.17;;;;;;;27.35;35.25;95429.47;6275798;22;20035;-83
2022/06/18 13:11:45;;;;;;;5.80;2.30;;;;;;;28.32;33.16;95513.66;6275935;22;20011;-82
2022/06/18 13:14:23;;;;;;;5.07;2.60;;;;;;;28.76;33.14;95508.91;6275356;22;20082;-83
2022/06/18 13:17:23;;;;;;;7.55;2.85;;;;;;;29.00;35.10;95507.44;6274061;22;20012;-83
2022/06/18 13:20:04;;;;;;;3.10;2.40;;;;;;;29.14;35.17;95496.59;6222707;22;20039;-82
2022/06/18 13:22:30;;;;;;;3.28;2.42;;;;;;;28.77;33.37;95387.66;6274463;22;20021;-82
2022/06/18 13:30:40;;;;;;;4.45;2.42;;;;;;;29.74;32.14;95503.41;6274701;22;20069;-82
2022/06/18 13:33:39;;;;;;;5.53;2.88;;;;;;;29.57;33.01;95455.75;6275321;22;20082;-83
2022/06/18 13:36:08;;;;;;;3.63;2.17;;;;;;;29.89;34.97;95510.47;6274600;22;20007;-83
2022/06/18 13:38:59;;;;;;;7.13;2.80;;;;;;;29.68;35.61;95503.00;6272188;22;20028;-83
2022/06/18 13:41:35;;;;;;;5.90;2.70;;;;;;;30.30;32.10;95503.44;6268805;22;20090;-83
2022/06/18 13:44:18;;;;;;;5.55;2.53;;;;;;;30.40;31.56;95514.78;6273844;22;20497;-82
2022/06/18 13:46:48;;;;;;;9.13;2.60;;;;;;;30.33;31.85;95501.88;6275400;22;19999;-83
2022/06/18 13:49:17;;;;;;;6.65;2.35;;;;;;;30.46;32.06;95499.50;6273502;22;20008;-83
2022/06/18 13:51:43;;;;;;;7.75;2.95;;;;;;;30.30;31.96;95434.25;6272490;22;20464;-83
2022/06/18 13:54:16;;;;;;;7.10;2.47;;;;;;;30.51;31.53;95510.13;6273130;22;20013;-82
2022/06/18 13:57:04;;;;;;;4.78;2.35;;;;;;;30.08;31.22;95490.94;6273978;22;20043;-83
2022/06/18 13:59:32;;;;;;;4.28;2.25;;;;;;;30.23;31.30;95472.56;6273558;22;20012;-83
2022/06/18 14:02:04;;;;;;;6.28;2.60;;;;;;;30.35;31.38;95431.16;6273054;22;20027;-83
2022/06/18 14:04:36;;;;;;;7.63;2.35;;;;;;;30.76;30.15;95438.84;6273405;22;20008;-83
2022/06/18 14:07:08;;;;;;;4.50;2.10;;;;;;;30.39;30.53;95351.78;6273465;22;20003;-83
2022/06/18 14:09:54;;;;;;;4.47;2.17;;;;;;;30.93;29.54;95462.66;6274608;22;20058;-83
2022/06/18 14:12:33;;;;;;;3.53;1.70;;;;;;;31.39;28.92;95482.44;6276274;22;20015;-83
2022/06/18 14:15:17;;;;;;;4.82;1.98;;;;;;;31.54;30.11;95476.84;6273091;22;21132;-82
2022/06/18 14:17:45;;;;;;;5.60;1.83;;;;;;;30.93;27.93;95397.72;6273019;22;20008;-83
2022/06/18 14:20:25;;;;;;;8.10;2.15;;;;;;;31.49;28.37;95482.78;6272689;22;20442;-83
2022/06/18 14:23:04;;;;;;;2.80;1.95;;;;;;;31.66;27.68;95454.50;6273441;22;20015;-82
2022/06/18 14:25:54;;;;;;;7.47;2.38;;;;;;;32.06;27.93;95486.69;6272948;22;20073;-83
2022/06/18 14:28:30;;;;;;;3.80;1.90;;;;;;;31.74;29.33;95477.91;6272311;22;20445;-83
2022/06/18 14:31:01;;;;;;;1.80;1.70;;;;;;;31.18;30.69;95474.31;6274792;22;20228;-83
2022/06/18 14:33:39;;;;;;;2.50;1.95;;;;;;;29.94;32.03;95329.63;6272250;22;20012;-83
2022/06/18 14:36:25;;;;;;;2.28;1.90;;;;;;;31.41;29.95;95468.34;6275799;22;20023;-83
2022/06/18 14:38:55;;;;;;;4.65;2.00;;;;;;;31.78;30.46;95432.84;6273197;22;20024;-83
2022/06/18 14:41:35;;;;;;;2.80;1.58;;;;;;;32.24;29.45;95488.53;6276405;22;20039;-83
2022/06/18 14:44:19;;;;;;;2.70;1.83;;;;;;;32.22;29.60;95480.72;6274384;22;20081;-83
2022/06/18 14:46:48;;;;;;;5.72;1.88;;;;;;;31.51;31.13;95492.13;6274999;22;20008;-83
2022/06/18 14:49:41;;;;;;;4.00;2.05;;;;;;;31.31;30.90;95431.59;6274813;22;20011;-83
2022/06/18 14:52:23;;;;;;;3.38;2.08;;;;;;;31.02;33.09;95402.75;6252949;22;20084;-82
2022/06/18 14:55:00;;;;;;;7.45;2.38;;;;;;;31.29;33.14;95496.19;6276173;22;20012;-83
2022/06/18 14:57:41;;;;;;;7.93;2.33;;;;;;;29.65;34.39;95355.44;6274513;22;20018;-82
2022/06/18 15:00:46;;;;;;;3.92;2.58;;;;;;;29.72;35.27;95492.88;6274788;22;20007;-83
2022/06/18 15:03:19;;;;;;;3.15;2.40;;;;;;;29.25;35.12;95443.94;6275279;22;20366;-83
2022/06/18 15:05:54;;;;;;;6.75;3.03;;;;;;;28.93;35.69;95416.53;6276674;22;19996;-83
2022/06/18 15:08:20;;;;;;;4.93;3.25;;;;;;;28.92;36.76;95489.47;6275047;22;20011;-83
2022/06/18 15:10:55;;;;;;;6.47;3.00;;;;;;;28.30;37.53;95472.38;6275935;22;20408;-83
2022/06/18 15:13:21;;;;;;;3.88;2.42;;;;;;;28.09;38.76;95437.50;6274049;22;20008;-83
2022/06/18 15:16:02;;;;;;;4.38;2.72;;;;;;;27.02;37.90;95239.00;6275651;22;20444;-82
2022/06/18 15:18:40;;;;;;;7.20;2.60;;;;;;;28.73;37.36;95454.28;6276093;22;20011;-83
2022/06/18 15:21:33;;;;;;;4.97;2.60;;;;;;;28.57;37.64;95468.22;6274917;22;20094;-83
2022/06/18 15:26:36;;;;;;;4.30;2.63;;;;;;;28.30;37.29;95456.75;6276205;22;20014;-83
2022/06/18 15:29:07;;;;;;;5.03;2.60;;;;;;;28.41;37.58;95465.81;6275590;22;20003;-83
2022/06/18 15:31:39;;;;;;;8.43;3.50;;;;;;;28.40;37.86;95460.72;6274281;22;20078;-83
2022/06/18 15:34:27;;;;;;;4.95;2.60;;;;;;;29.49;36.14;95497.91;6274150;22;20004;-83
2022/06/18 15:37:20;;;;;;;7.28;2.75;;;;;;;28.56;36.87;95420.28;6276741;22;20007;-83
2022/06/18 15:39:59;;;;;;;6.18;3.17;;;;;;;29.11;36.39;95453.69;6269507;22;20028;-83
2022/06/18 15:42:40;;;;;;;3.20;2.60;;;;;;;29.55;35.93;95494.41;6277126;22;20030;-85
2022/06/18 15:45:15;;;;;;;6.10;2.28;;;;;;;28.27;35.99;95373.00;6277770;22;20358;-83
2022/06/18 15:47:41;;;;;;;7.50;2.90;;;;;;;29.15;35.62;95500.88;6300014;22;20008;-83
2022/06/18 15:50:12;;;;;;;5.75;2.78;;;;;;;29.14;35.79;95507.50;6277199;22;20086;-83
2022/06/18 15:52:40;;;;;;;6.35;2.85;;;;;;;28.70;37.54;95476.88;6275106;22;20014;-82
2022/06/18 15:55:14;;;;;;;4.43;2.95;;;;;;;28.22;36.55;95406.09;6273518;22;20015;-82
2022/06/18 15:57:40;;;;;;;3.65;2.78;;;;;;;28.16;37.51;95417.72;6273618;22;20019;-82
2022/06/18 16:00:19;;;;;;;5.32;2.78;;;;;;;28.84;37.35;95501.53;6274091;22;20016;-83
2022/06/18 16:02:46;;;;;;;5.97;3.03;;;;;;;28.86;37.37;95485.56;6274108;22;20004;-82
2022/06/18 16:05:20;;;;;;;4.63;2.78;;;;;;;28.78;36.56;95443.78;6274320;22;20010;-82
2022/06/18 16:07:56;;;;;;;4.00;2.15;;;;;;;29.14;36.08;95452.13;6275875;22;20067;-83
2022/06/18 16:10:41;;;;;;;3.03;2.10;;;;;;;29.64;33.66;95512.38;6273769;22;20014;-83
2022/06/18 16:13:25;;;;;;;3.15;2.22;;;;;;;29.10;34.58;95512.19;6273570;22;20012;-82
2022/06/18 16:15:54;;;;;;;3.72;2.30;;;;;;;28.63;34.28;95455.00;6273462;22;20045;-83
2022/06/18 16:18:46;;;;;;;4.53;2.70;;;;;;;29.12;35.37;95515.31;6273779;22;20566;-83
2022/06/18 16:21:12;;;;;;;4.35;2.53;;;;;;;28.83;36.00;95499.97;6266298;22;20446;-82
2022/06/18 16:23:40;;;;;;;3.00;2.40;;;;;;;27.63;36.98;95427.03;6273831;22;20012;-83
2022/06/18 16:26:06;;;;;;;5.53;2.55;;;;;;;28.18;37.09;95521.72;6274055;22;20009;-83
2022/06/18 16:28:38;;;;;;;3.22;2.63;;;;;;;27.46;36.68;95419.47;6274023;22;20438;-83
2022/06/18 16:31:13;;;;;;;6.55;2.60;;;;;;;27.62;37.32;95506.41;6275435;22;20000;-84
2022/06/18 16:33:44;;;;;;;5.50;2.60;;;;;;;27.32;38.87;95524.75;6274191;22;20141;-83
2022/06/18 16:36:12;;;;;;;;;;;;;;;27.32;38.26;95522.03;6274703;22;20053;-83
2022/06/18 16:38:45;;;;;;;3.90;2.53;;;;;;;26.98;38.96;95522.03;6273399;22;19982;-83
2022/06/18 16:41:13;;;;;;;7.82;3.67;;;;;;;27.03;39.13;95513.53;6273523;22;20007;-84
2022/06/18 16:43:51;;;;;;;6.10;4.03;;;;;;;26.87;39.42;95515.63;6275566;22;20042;-83
2022/06/18 16:46:26;;;;;;;6.10;4.05;;;;;;;26.39;41.11;95520.81;6274174;22;20018;-83
2022/06/18 16:49:01;;;;;;;7.07;3.85;;;;;;;26.44;40.56;95527.88;6278407;22;20015;-83
2022/06/18 16:51:41;;;;;;;9.40;4.68;;;;;;;26.29;41.36;95526.09;6276130;22;20012;-82
2022/06/18 16:54:31;;;;;;;15.23;4.90;;;;;;;25.77;41.91;95497.66;6274139;22;20086;-83
2022/06/18 16:56:58;;;;;;;9.15;4.35;;;;;;;25.33;42.14;95445.63;6273789;22;20426;-83
2022/06/18 16:59:28;;;;;;;6.13;4.20;;;;;;;24.95;41.91;95393.00;6274774;22;20007;-83
2022/06/18 17:01:59;;;;;;;5.75;3.58;;;;;;;24.93;42.47;95429.81;6273926;22;20045;-83
2022/06/18 17:04:26;;;;;;;6.53;3.80;;;;;;;25.40;42.59;95489.22;6273864;22;20007;-83
2022/06/18 17:06:55;;;;;;;8.88;4.22;;;;;;;25.81;42.51;95533.03;6275591;22;20437;-82
2022/06/18 17:09:21;;;;;;;8.77;3.67;;;;;;;25.61;42.60;95488.84;6274253;22;20014;-83
2022/06/18 17:11:47;;;;;;;5.38;3.40;;;;;;;25.44;41.86;95429.53;6274019;22;20011;-83
2022/06/18 17:14:13;;;;;;;6.75;3.83;;;;;;;25.55;40.67;95393.28;6274659;22;20068;-83
2022/06/18 17:16:38;;;;;;;4.55;3.42;;;;;;;26.32;40.12;95490.78;6275801;22;20087;-82
2022/06/18 17:19:04;;;;;;;5.63;3.40;;;;;;;26.52;40.35;95496.91;6272847;22;20112;-83
2022/06/18 17:21:31;;;;;;;10.35;4.18;;;;;;;26.70;39.42;95499.88;6272470;22;20008;-83
2022/06/18 17:32:12;;;;;;;10.80;4.35;;;;;;;26.91;39.36;95534.75;6275222;22;20019;-83
2022/06/18 17:34:37;;;;;;;5.45;3.42;;;;;;;26.55;39.48;95487.97;6271758;22;20004;-83
2022/06/18 17:37:03;;;;;;;7.25;4.20;;;;;;;26.68;39.09;95508.41;6273072;22;20007;-83
2022/06/18 17:39:29;;;;;;;11.68;5.38;;;;;;;26.50;39.34;95491.81;6273118;22;20030;-84
2022/06/18 17:41:55;;;;;;;10.80;5.80;;;;;;;26.50;39.78;95540.00;6273725;22;20355;-83
2022/06/18 17:44:20;;;;;;;10.68;4.13;;;;;;;26.52;39.79;95546.66;6274281;22;20331;-83
2022/06/18 17:46:46;;;;;;;7.85;3.70;;;;;;;26.42;40.08;95547.25;6272699;22;20431;-83
2022/06/18 17:49:11;;;;;;;4.07;3.10;;;;;;;26.30;40.64;95558.34;6272541;22;20008;-83
2022/06/18 17:51:39;;;;;;;4.10;3.70;;;;;;;25.51;40.49;95464.97;6273086;22;20003;-83
2022/06/18 17:54:05;;;;;;;7.03;3.67;;;;;;;25.31;41.32;95483.25;6272956;22;20403;-83
2022/06/18 17:56:32;;;;;;;6.88;3.70;;;;;;;24.98;41.94;95470.97;6298210;22;20026;-83
2022/06/18 17:58:59;;;;;;;8.20;3.50;;;;;;;25.21;42.16;95543.53;6272619;22;20008;-83
2022/06/18 18:01:31;;;;;;;5.43;3.35;;;;;;;24.70;42.96;95504.84;6274525;22;20141;-83
2022/06/18 18:04:00;;;;;;;6.40;3.40;;;;;;;24.70;43.73;95562.59;6273496;22;20012;-83
2022/06/18 18:06:26;;;;;;;4.95;3.60;;;;;;;24.34;45.01;95543.94;6274438;22;20102;-83
2022/06/18 18:08:52;;;;;;;7.10;4.13;;;;;;;24.07;45.33;95515.81;6298086;22;20018;-83
2022/06/18 18:11:22;;;;;;;10.15;4.50;;;;;;;23.51;46.16;95461.03;6298783;22;20086;-83
2022/06/18 18:13:50;;;;;;;11.00;4.80;;;;;;;23.34;47.59;95494.63;6272704;22;20499;-83
2022/06/18 18:16:16;;;;;;;12.57;5.78;;;;;;;23.31;48.22;95525.84;6272906;22;20054;-83
2022/06/18 18:18:42;;;;;;;11.20;5.63;;;;;;;23.36;48.45;95560.78;6274669;22;20409;-83
2022/06/18 18:21:09;;;;;;;26.92;10.60;;;;;;;23.02;49.15;95554.03;6272804;22;20382;-83
2022/06/18 18:23:35;;;;;;;19.88;9.82;;;;;;;22.93;49.30;95541.78;6274297;22;20011;-82
2022/06/18 18:26:01;;;;;;;20.60;11.15;;;;;;;22.03;49.52;95425.97;6273456;22;20011;-82
2022/06/18 18:28:27;;;;;;;24.73;14.23;;;;;;;22.71;49.95;95524.91;6275194;22;20319;-83
2022/06/18 18:30:53;;;;;;;31.42;14.02;;;;;;;22.96;50.05;95573.56;6272770;22;20011;-82
2022/06/18 18:33:18;;;;;;;21.50;10.95;;;;;;;22.19;51.42;95518.69;6272701;22;20015;-82
2022/06/18 18:35:44;;;;;;;15.15;7.82;;;;;;;22.51;51.48;95558.28;6272621;22;20065;-82
2022/06/18 18:38:09;;;;;;;14.95;6.13;;;;;;;22.50;51.53;95542.41;6274488;22;20421;-83
2022/06/18 18:40:36;;;;;;;15.90;7.35;;;;;;;21.87;51.89;95450.16;6273168;22;20014;-83
2022/06/18 18:43:06;;;;;;;10.95;6.03;;;;;;;22.53;52.98;95595.78;6274768;22;20026;-83
2022/06/18 18:45:32;;;;;;;15.30;6.05;;;;;;;21.87;53.38;95531.16;6274039;22;20030;-83
2022/06/18 18:47:59;;;;;;;12.65;6.03;;;;;;;22.33;53.55;95602.91;6272903;22;20023;-83
2022/06/18 18:50:25;;;;;;;13.88;6.10;;;;;;;21.75;53.29;95490.63;6274883;22;20003;-83
2022/06/18 18:52:51;;;;;;;12.15;6.25;;;;;;;21.92;53.38;95522.81;6273942;22;20105;-83
2022/06/18 18:55:17;;;;;;;14.65;6.55;;;;;;;21.76;53.63;95521.91;6273554;22;20430;-83
2022/06/18 18:57:43;;;;;;;14.10;6.30;;;;;;;21.47;54.18;95504.78;6274467;22;20061;-83
2022/06/18 19:00:12;;;;;;;14.65;6.35;;;;;;;21.81;54.80;95575.69;6273644;22;20016;-83
2022/06/18 19:02:38;;;;;;;21.77;7.07;;;;;;;22.21;54.13;95619.88;6273007;22;20018;-83
2022/06/18 19:05:07;;;;;;;16.02;6.97;;;;;;;21.67;54.83;95564.38;6272174;22;20027;-83
2022/06/18 19:07:33;;;;;;;8.80;6.47;;;;;;;21.25;56.01;95558.31;6272466;22;20043;-83
2022/06/18 19:09:58;;;;;;;12.65;5.97;;;;;;;21.06;55.60;95534.50;6273322;22;20008;-82
2022/06/18 19:15:08;;;;;;;13.43;7.05;;;;;;;21.09;55.86;95550.81;6274443;22;20026;-83
2022/06/18 19:17:33;;;;;;;13.93;6.50;;;;;;;21.43;56.36;95611.00;6274179;22;20003;-83
2022/06/18 19:19:59;;;;;;;14.93;6.93;;;;;;;21.03;56.54;95546.75;6272050;22;20007;-83
2022/06/18 19:22:24;;;;;;;14.23;7.03;;;;;;;21.27;55.72;95548.78;6273899;22;20034;-83
2022/06/18 19:24:50;;;;;;;15.48;7.03;;;;;;;21.35;55.43;95569.50;6274207;22;20012;-82
2022/06/18 19:27:15;;;;;;;16.75;7.30;;;;;;;21.56;54.90;95602.63;6274548;22;20023;-83
2022/06/18 19:29:41;;;;;;;11.85;6.88;;;;;;;21.06;55.22;95535.28;6274122;22;20011;-83
2022/06/18 19:32:07;;;;;;;14.52;6.70;;;;;;;21.39;55.94;95615.47;6274012;22;20446;-83
2022/06/18 19:34:33;;;;;;;15.43;6.60;;;;;;;21.34;55.54;95592.19;6276072;22;20003;-83
2022/06/18 19:36:59;;;;;;;18.23;7.78;;;;;;;21.26;55.92;95590.38;6276207;22;21596;-83
2022/06/18 19:39:32;;;;;;;19.52;7.45;;;;;;;21.51;56.25;95634.44;6273985;22;20083;-84
2022/06/18 19:41:57;;;;;;;13.43;7.80;;;;;;;21.47;56.19;95634.28;6274215;22;20023;-83
2022/06/18 19:44:23;;;;;;;19.02;8.00;;;;;;;21.44;56.32;95632.25;6274660;22;20422;-83
2022/06/18 19:46:48;;;;;;;23.30;7.38;;;;;;;21.26;56.36;95605.75;6274451;22;20007;-83
2022/06/18 19:49:14;;;;;;;17.10;7.72;;;;;;;21.20;56.49;95613.28;6273788;22;20015;-83